Hlavní strana
METAR-TAF:

METAR-TAF

Letiště :

Nashville, Tennessee, Spojené státy americké

zeměpisná šířka: 36-10-56N, zeměpisná délka: 086-53-12W, výška: 151 m

Aktuální stav počasí

Zpráva byla vytvořena před 28 minutami, v 00:35 UTC
Bezvětří
Teplota 9°C
Vlhkost vzduchu 76%
Tlak 1025 hPa
Viditelnost: 16.1 km
Jasno

METAR: KJWN 080035Z AUTO 00000KT 10SM CLR 09/05 A3026 RMK A01

Čas: 19:03 (01:03 UTC)


TAF: chybějící

Stav a předpovědi počasí z více než 4 000 letišť (zprávy METAR a TAF).

Červené a žluté tečky na mapě představují dostupné meteorologické stanice.

Když kurzor umístíte na tečku, zobrazí se název stanice.

Pak kliknutím zobrazíte stav a předpověď počasí.

Chcete-li změnit mapu, kliknutím na zelené tlačítko se znaménkem +mapu přiblížíte, kliknutím na zelené tlačítko se znaménkem – mapu oddálíte a kliknutím na zelené šipky přejdete na sousední mapy.


METAR-TAF: